Thunder radar more information blitzortung!


Radar de pluja more information rain snow radar


Visita la nostra xarxa de llocs de meteo:

Template documentation
and downloads

And another site



No particular awareness of the weather is required.    There are no Weather-warnings

Pagina Historial Weather Underground text

Diari Resum Setembre 11, 2017 Unitats:  Mètric    Imperial   Tant
« Previous Dia
SegĂźent Dia »
Diari Setmana Mensual Anual Personalitzada
  Maxima: Minima: Media:
Temperatura: 31.1 °C 16.3 °C 25.1 °C
Punt de rosada: 15.1 °C 6.5 °C 11.7 °C
Humitat: 81 % 31 % 45 %
Wind Speed: 20.6 km/h 0.0 km/h 8.8 km/h
RĂ fegues de vent: 20.6 km/h - -
Vent:- - SW
Pression baro: 1011.7 hPa 1007.0 hPa -
Precipitacions: 0.0 mm    
Historical Graphs
 
 
Dades de taula per Setembre 11, 2017
Temps Temperatura Punt de rosada Pression baro Vent Wind Speed RĂ fegues de vent Humitat Rainfall Rate (Hourly)
00:00 16.8 °C 6.6 °C 1009.0 hPa WNW 1.6 km/h 3.2 km/h 51 % 0.0 mm
00:01 18.6 °C 8.6 °C 1010.0 hPa NNE 5.6 km/h 5.6 km/h 52 % 0.0 mm
00:06 18.6 °C 8.6 °C 1010.0 hPa NNE 5.6 km/h 5.6 km/h 52 % 0.0 mm
00:10 16.7 °C 6.5 °C 1009.0 hPa Calm   3.2 km/h 51 % 0.0 mm
00:20 16.7 °C 6.8 °C 1009.0 hPa WSW 1.6 km/h 8.0 km/h 52 % 0.0 mm
00:30 16.7 °C 6.8 °C 1009.0 hPa WSW 3.2 km/h 3.2 km/h 52 % 0.0 mm
00:40 16.6 °C 6.7 °C 1009.0 hPa WSW 1.6 km/h 3.2 km/h 52 % 0.0 mm
00:50 16.8 °C 6.9 °C 1009.0 hPa West 3.2 km/h 6.4 km/h 52 % 0.0 mm
01:00 17.0 °C 7.1 °C 1009.0 hPa West 3.2 km/h 6.4 km/h 52 % 0.0 mm
01:10 17.0 °C 7.1 °C 1008.0 hPa West 3.2 km/h 4.8 km/h 52 % 0.0 mm
01:20 16.9 °C 7.3 °C 1008.0 hPa West 3.2 km/h 9.7 km/h 53 % 0.0 mm
01:30 16.8 °C 7.4 °C 1008.0 hPa West 3.2 km/h 3.2 km/h 54 % 0.0 mm
01:40 16.9 °C 7.5 °C 1008.0 hPa WSW 1.6 km/h 4.8 km/h 54 % 0.0 mm
01:50 16.7 °C 7.6 °C 1008.0 hPa WSW 1.6 km/h 3.2 km/h 55 % 0.0 mm
02:00 16.6 °C 7.5 °C 1009.0 hPa WSW 1.6 km/h 3.2 km/h 55 % 0.0 mm
02:10 16.3 °C 7.5 °C 1008.0 hPa WSW 1.6 km/h 1.6 km/h 56 % 0.0 mm
02:20 16.4 °C 7.6 °C 1008.0 hPa North 3.2 km/h 3.2 km/h 56 % 0.0 mm
02:30 16.6 °C 8.1 °C 1009.0 hPa WNW 1.6 km/h 4.8 km/h 57 % 0.0 mm
02:40 16.6 °C 8.3 °C 1009.0 hPa Calm   6.4 km/h 58 % 0.0 mm
02:50 16.7 °C 8.4 °C 1009.0 hPa Calm   3.2 km/h 58 % 0.0 mm
03:00 16.8 °C 8.5 °C 1008.0 hPa SW 1.6 km/h 3.2 km/h 58 % 0.0 mm
03:10 17.5 °C 8.9 °C 1008.0 hPa SE 1.6 km/h 3.2 km/h 57 % 0.0 mm
03:20 17.8 °C 9.2 °C 1008.0 hPa NW 1.6 km/h 3.2 km/h 57 % 0.0 mm
03:30 17.8 °C 9.2 °C 1008.0 hPa North 3.2 km/h 4.8 km/h 57 % 0.0 mm
03:40 18.3 °C 9.6 °C 1009.0 hPa NNE 1.6 km/h 3.2 km/h 57 % 0.0 mm
03:50 18.5 °C 9.8 °C 1009.0 hPa WNW 3.2 km/h 9.7 km/h 57 % 0.0 mm
04:00 19.2 °C 10.4 °C 1009.0 hPa West 1.6 km/h 4.8 km/h 57 % 0.0 mm
04:10 19.9 °C 10.8 °C 1009.0 hPa West 3.2 km/h 4.8 km/h 56 % 0.0 mm
04:20 20.2 °C 10.9 °C 1009.0 hPa West 1.6 km/h 3.2 km/h 55 % 0.0 mm
04:30 19.9 °C 10.6 °C 1008.0 hPa West 3.2 km/h 8.0 km/h 55 % 0.0 mm
04:40 20.3 °C 10.9 °C 1008.0 hPa West 8.0 km/h 8.0 km/h 55 % 0.0 mm
04:50 20.6 °C 11.2 °C 1008.0 hPa West 4.8 km/h 8.0 km/h 55 % 0.0 mm
05:00 21.0 °C 11.3 °C 1008.0 hPa WSW 8.0 km/h 9.7 km/h 54 % 0.0 mm
05:10 21.5 °C 11.8 °C 1008.0 hPa WSW 4.8 km/h 8.0 km/h 54 % 0.0 mm
05:20 22.1 °C 12.1 °C 1008.0 hPa WSW 4.8 km/h 4.8 km/h 53 % 0.0 mm
05:30 22.5 °C 12.2 °C 1008.0 hPa SW 4.8 km/h 9.7 km/h 52 % 0.0 mm
05:35 22.6 °C 12.2 °C 1008.0 hPa WSW 8.0 km/h 8.0 km/h 52 % 0.0 mm
10:35 22.6 °C 12.2 °C 1008.0 hPa West 7.4 km/h 7.4 km/h 52 % 0.0 mm
10:40 23.2 °C 12.5 °C 1008.0 hPa WNW 5.6 km/h 5.6 km/h 51 % 0.0 mm
10:45 23.2 °C 12.2 °C 1008.0 hPa West 14.8 km/h 14.8 km/h 50 % 0.0 mm
10:50 23.2 °C 12.2 °C 1009.0 hPa South 11.1 km/h 11.1 km/h 50 % 0.0 mm
10:55 24.0 °C 12.9 °C 1009.0 hPa West 5.6 km/h 5.6 km/h 50 % 0.0 mm
11:00 24.3 °C 13.2 °C 1009.0 hPa West 7.4 km/h 7.4 km/h 50 % 0.0 mm
11:05 24.3 °C 12.9 °C 1009.0 hPa North 9.3 km/h 9.3 km/h 49 % 0.0 mm
11:10 24.3 °C 12.9 °C 1009.0 hPa West 9.3 km/h 9.3 km/h 49 % 0.0 mm
11:15 24.6 °C 13.2 °C 1009.0 hPa WSW 9.3 km/h 9.3 km/h 49 % 0.0 mm
11:20 24.9 °C 13.4 °C 1009.0 hPa WSW 7.4 km/h 7.4 km/h 49 % 0.0 mm
11:25 25.3 °C 13.2 °C 1009.0 hPa West 6.1 km/h 6.1 km/h 47 % 0.0 mm
11:30 25.3 °C 13.2 °C 1009.0 hPa WSW 7.4 km/h 7.4 km/h 47 % 0.0 mm
11:35 25.4 °C 13.3 °C 1009.0 hPa SSW 16.7 km/h 16.7 km/h 47 % 0.0 mm
11:40 25.5 °C 13.1 °C 1009.0 hPa WSW 9.3 km/h 9.3 km/h 46 % 0.0 mm
11:45 25.6 °C 13.1 °C 1009.0 hPa West 13.0 km/h 13.0 km/h 46 % 0.0 mm
11:50 25.5 °C 13.1 °C 1008.0 hPa West 16.7 km/h 16.7 km/h 46 % 0.0 mm
11:55 26.1 °C 13.6 °C 1008.0 hPa SSE 13.0 km/h 13.0 km/h 46 % 0.0 mm
12:00 26.4 °C 13.8 °C 1008.0 hPa WSW 13.0 km/h 13.0 km/h 46 % 0.0 mm
12:05 26.4 °C 13.5 °C 1008.0 hPa West 11.9 km/h 11.9 km/h 45 % 0.0 mm
12:10 26.3 °C 13.4 °C 1008.0 hPa SW 14.8 km/h 14.8 km/h 45 % 0.0 mm
12:15 26.9 °C 13.9 °C 1008.0 hPa WSW 14.0 km/h 14.0 km/h 45 % 0.0 mm
12:20 27.0 °C 13.3 °C 1008.0 hPa SSW 11.1 km/h 11.1 km/h 43 % 0.0 mm
12:25 27.2 °C 13.6 °C 1008.0 hPa SSW 13.0 km/h 13.0 km/h 43 % 0.0 mm
12:30 26.9 °C 13.3 °C 1008.0 hPa SW 13.0 km/h 13.0 km/h 43 % 0.0 mm
12:35 27.0 °C 13.0 °C 1008.0 hPa ESE 16.7 km/h 16.7 km/h 42 % 0.0 mm
12:40 27.2 °C 13.2 °C 1008.0 hPa West 16.7 km/h 16.7 km/h 42 % 0.0 mm
12:45 27.4 °C 13.3 °C 1008.0 hPa West 9.5 km/h 9.5 km/h 42 % 0.0 mm
12:50 27.6 °C 13.6 °C 1008.0 hPa NNW 14.8 km/h 14.8 km/h 42 % 0.0 mm
12:51 27.6 °C 13.6 °C 1008.0 hPa SW 20.6 km/h 20.6 km/h 42 % 0.0 mm
12:56 27.6 °C 13.2 °C 1008.0 hPa WNW 12.6 km/h 12.6 km/h 41 % 0.0 mm
13:01 27.5 °C 13.1 °C 1008.0 hPa WSW 13.0 km/h 13.0 km/h 41 % 0.0 mm
13:06 27.7 °C 13.3 °C 1008.0 hPa WNW 13.0 km/h 13.0 km/h 41 % 0.0 mm
13:11 27.9 °C 13.4 °C 1008.0 hPa WSW 13.0 km/h 13.0 km/h 41 % 0.0 mm
13:16 27.9 °C 13.4 °C 1008.0 hPa SW 14.8 km/h 14.8 km/h 41 % 0.0 mm
13:21 28.3 °C 13.8 °C 1008.0 hPa West 11.1 km/h 11.1 km/h 41 % 0.0 mm
13:26 28.0 °C 13.2 °C 1008.0 hPa WNW 16.7 km/h 16.7 km/h 40 % 0.0 mm
13:31 28.4 °C 13.5 °C 1008.0 hPa WSW 14.8 km/h 14.8 km/h 40 % 0.0 mm
13:36 28.7 °C 13.8 °C 1008.0 hPa North 9.3 km/h 9.3 km/h 40 % 0.0 mm
13:41 28.9 °C 13.9 °C 1008.0 hPa SW 13.0 km/h 13.0 km/h 40 % 0.0 mm
13:46 28.8 °C 13.8 °C 1008.0 hPa SSE 11.1 km/h 11.1 km/h 40 % 0.0 mm
13:51 29.0 °C 13.7 °C 1007.0 hPa WSW 9.7 km/h 9.7 km/h 39 % 0.0 mm
13:56 29.3 °C 13.9 °C 1007.0 hPa West 9.5 km/h 9.5 km/h 39 % 0.0 mm
14:01 29.6 °C 13.8 °C 1007.0 hPa SW 18.5 km/h 18.5 km/h 38 % 0.0 mm
14:06 29.4 °C 13.6 °C 1008.0 hPa WNW 13.0 km/h 13.0 km/h 38 % 0.0 mm
14:11 29.4 °C 13.6 °C 1008.0 hPa SW 11.1 km/h 11.1 km/h 38 % 0.0 mm
14:16 29.3 °C 13.5 °C 1008.0 hPa WSW 9.3 km/h 9.3 km/h 38 % 0.0 mm
14:21 29.2 °C 13.4 °C 1007.0 hPa SW 9.3 km/h 9.3 km/h 38 % 0.0 mm
14:26 29.0 °C 13.2 °C 1007.0 hPa WSW 5.6 km/h 5.6 km/h 38 % 0.0 mm
14:32 28.8 °C 13.4 °C 1007.0 hPa WSW 9.3 km/h 9.3 km/h 39 % 0.0 mm
14:37 28.8 °C 13.4 °C 1009.0 hPa SW 5.6 km/h 5.6 km/h 39 % 0.0 mm
14:42 29.1 °C 13.3 °C 1009.0 hPa West 9.3 km/h 9.3 km/h 38 % 0.0 mm
14:47 29.1 °C 13.3 °C 1009.0 hPa NE 5.6 km/h 5.6 km/h 38 % 0.0 mm
14:52 29.4 °C 13.6 °C 1008.0 hPa WSW 5.0 km/h 5.0 km/h 38 % 0.0 mm
14:57 29.8 °C 13.9 °C 1008.0 hPa NW 7.4 km/h 7.4 km/h 38 % 0.0 mm
15:02 30.3 °C 14.0 °C 1008.0 hPa NNE 10.0 km/h 10.0 km/h 37 % 0.0 mm
15:07 30.1 °C 13.4 °C 1008.0 hPa West 9.3 km/h 9.3 km/h 36 % 0.0 mm
15:12 29.7 °C 13.1 °C 1008.0 hPa WNW 11.1 km/h 11.1 km/h 36 % 0.0 mm
15:17 29.5 °C 12.8 °C 1008.0 hPa West 9.5 km/h 9.5 km/h 36 % 0.0 mm
15:22 30.0 °C 12.9 °C 1008.0 hPa WNW 5.6 km/h 5.6 km/h 35 % 0.0 mm
15:27 31.1 °C 13.4 °C 1008.0 hPa SW 7.4 km/h 7.4 km/h 34 % 0.0 mm
15:32 31.0 °C 13.3 °C 1008.0 hPa West 9.3 km/h 9.3 km/h 34 % 0.0 mm
15:37 30.5 °C 12.4 °C 1007.0 hPa WSW 13.0 km/h 13.0 km/h 33 % 0.0 mm
15:42 29.9 °C 11.9 °C 1007.0 hPa WSW 9.3 km/h 9.3 km/h 33 % 0.0 mm
15:47 29.8 °C 11.8 °C 1007.0 hPa WSW 7.4 km/h 7.4 km/h 33 % 0.0 mm
15:52 29.6 °C 11.2 °C 1008.0 hPa NNW 13.0 km/h 13.0 km/h 32 % 0.0 mm
15:57 30.5 °C 11.9 °C 1008.0 hPa WSW 13.0 km/h 13.0 km/h 32 % 0.0 mm
16:02 30.6 °C 12.0 °C 1008.0 hPa WNW 11.1 km/h 11.1 km/h 32 % 0.0 mm
16:07 30.6 °C 12.0 °C 1008.0 hPa West 11.1 km/h 11.1 km/h 32 % 0.0 mm
16:12 30.3 °C 11.3 °C 1008.0 hPa West 11.1 km/h 11.1 km/h 31 % 0.0 mm
16:17 28.9 °C 10.6 °C 1008.0 hPa ESE 12.6 km/h 12.6 km/h 32 % 0.0 mm
16:22 29.2 °C 10.8 °C 1008.0 hPa South 9.3 km/h 9.3 km/h 32 % 0.0 mm
16:27 27.5 °C 9.8 °C 1008.0 hPa ESE 16.7 km/h 16.7 km/h 33 % 0.0 mm
16:32 27.0 °C 9.8 °C 1008.0 hPa North 8.7 km/h 8.7 km/h 34 % 0.0 mm
16:37 27.0 °C 10.2 °C 1008.0 hPa East 11.1 km/h 11.1 km/h 35 % 0.0 mm
16:42 26.6 °C 10.3 °C 1008.0 hPa ESE 12.2 km/h 12.2 km/h 36 % 0.0 mm
16:47 26.4 °C 10.1 °C 1008.0 hPa ENE 7.4 km/h 7.4 km/h 36 % 0.0 mm
16:52 27.5 °C 11.1 °C 1008.0 hPa WSW 7.4 km/h 7.4 km/h 36 % 0.0 mm
16:57 27.9 °C 11.4 °C 1008.0 hPa SW 7.9 km/h 7.9 km/h 36 % 0.0 mm
17:02 26.7 °C 10.4 °C 1008.0 hPa East 13.0 km/h 13.0 km/h 36 % 0.0 mm
17:07 26.5 °C 10.6 °C 1007.0 hPa ESE 16.4 km/h 16.4 km/h 37 % 0.0 mm
17:12 25.4 °C 10.1 °C 1007.0 hPa SW 18.5 km/h 18.5 km/h 38 % 0.0 mm
17:17 25.7 °C 10.3 °C 1007.0 hPa ENE 9.5 km/h 9.5 km/h 38 % 0.0 mm
17:22 25.6 °C 10.6 °C 1007.0 hPa SSE 11.1 km/h 11.1 km/h 39 % 0.0 mm
17:27 25.2 °C 10.3 °C 1007.0 hPa ESE 14.8 km/h 14.8 km/h 39 % 0.0 mm
17:32 25.4 °C 10.8 °C 1007.0 hPa NNE 9.3 km/h 9.3 km/h 40 % 0.0 mm
17:37 25.5 °C 10.9 °C 1008.0 hPa NNW 6.9 km/h 6.9 km/h 40 % 0.0 mm
17:42 26.1 °C 11.4 °C 1008.0 hPa West 9.3 km/h 9.3 km/h 40 % 0.0 mm
17:47 26.5 °C 11.8 °C 1008.0 hPa WSW 11.9 km/h 11.9 km/h 40 % 0.0 mm
17:52 27.9 °C 11.9 °C 1008.0 hPa NNW 16.7 km/h 16.7 km/h 37 % 0.0 mm
17:57 28.4 °C 11.9 °C 1008.0 hPa WNW 13.7 km/h 13.7 km/h 36 % 0.0 mm
18:02 28.8 °C 11.8 °C 1008.0 hPa WSW 16.7 km/h 16.7 km/h 35 % 0.0 mm
18:07 29.0 °C 11.6 °C 1008.0 hPa West 6.1 km/h 6.1 km/h 34 % 0.0 mm
18:12 27.6 °C 11.2 °C 1008.0 hPa WSW 11.1 km/h 11.1 km/h 36 % 0.0 mm
18:17 28.5 °C 11.6 °C 1008.0 hPa ENE 3.7 km/h 3.9 km/h 35 % 0.0 mm
18:22 27.7 °C 11.7 °C 1008.0 hPa ENE 11.1 km/h 11.1 km/h 37 % 0.0 mm
18:27 27.9 °C 10.6 °C 1008.0 hPa SW 20.4 km/h 20.4 km/h 34 % 0.0 mm
18:32 28.0 °C 10.7 °C 1008.0 hPa SW 11.9 km/h 11.9 km/h 34 % 0.0 mm
18:37 28.0 °C 10.7 °C 1008.0 hPa SW 11.9 km/h 11.9 km/h 34 % 0.0 mm
18:42 28.0 °C 10.7 °C 1008.0 hPa SW 11.9 km/h 11.9 km/h 34 % 0.0 mm
18:47 28.0 °C 10.7 °C 1008.0 hPa SW 11.9 km/h 11.9 km/h 34 % 0.0 mm
18:52 28.0 °C 10.7 °C 1008.0 hPa SW 11.9 km/h 11.9 km/h 34 % 0.0 mm
18:57 28.0 °C 10.7 °C 1008.0 hPa SW 11.9 km/h 11.9 km/h 34 % 0.0 mm
19:02 28.0 °C 10.7 °C 1008.0 hPa SW 11.9 km/h 11.9 km/h 34 % 0.0 mm
19:07 28.0 °C 10.7 °C 1008.0 hPa SW 11.9 km/h 11.9 km/h 34 % 0.0 mm
19:12 28.0 °C 10.7 °C 1008.0 hPa SW 11.9 km/h 11.9 km/h 34 % 0.0 mm
19:17 28.0 °C 10.7 °C 1008.0 hPa SW 11.9 km/h 11.9 km/h 34 % 0.0 mm
19:20 19.6 °C 15.1 °C 1010.0 hPa SW 1.6 km/h 4.8 km/h 75 % 0.0 mm
19:22 28.0 °C 10.7 °C 1008.0 hPa SW 11.9 km/h 11.9 km/h 34 % 0.0 mm
19:27 28.0 °C 10.7 °C 1008.0 hPa SW 11.9 km/h 11.9 km/h 34 % 0.0 mm
19:30 19.5 °C 14.9 °C 1010.0 hPa NNE 3.2 km/h 4.8 km/h 75 % 0.0 mm
19:32 28.0 °C 10.7 °C 1008.0 hPa SW 11.9 km/h 11.9 km/h 34 % 0.0 mm
19:37 28.0 °C 10.7 °C 1008.0 hPa SW 11.9 km/h 11.9 km/h 34 % 0.0 mm
19:40 19.5 °C 14.9 °C 1010.0 hPa NE 3.2 km/h 4.8 km/h 75 % 0.0 mm
19:42 28.0 °C 10.7 °C 1008.0 hPa SW 11.9 km/h 11.9 km/h 34 % 0.0 mm
19:43 28.0 °C 10.7 °C 1008.0 hPa SW 11.9 km/h 11.9 km/h 34 % 0.0 mm
19:48 28.0 °C 10.7 °C 1008.0 hPa SW 11.9 km/h 11.9 km/h 34 % 0.0 mm
19:50 19.4 °C 14.8 °C 1010.0 hPa Calm   3.2 km/h 75 % 0.0 mm
19:53 28.0 °C 10.7 °C 1008.0 hPa SW 11.9 km/h 11.9 km/h 34 % 0.0 mm
19:58 28.0 °C 10.7 °C 1008.0 hPa SW 11.9 km/h 11.9 km/h 34 % 0.0 mm
20:00 19.4 °C 14.8 °C 1010.0 hPa NNE 1.6 km/h 1.6 km/h 75 % 0.0 mm
20:03 28.0 °C 10.7 °C 1008.0 hPa SW 11.9 km/h 11.9 km/h 34 % 0.0 mm
20:08 28.0 °C 10.7 °C 1008.0 hPa SW 11.9 km/h 11.9 km/h 34 % 0.0 mm
20:10 19.3 °C 14.9 °C 1010.0 hPa NNE 1.6 km/h 3.2 km/h 76 % 0.0 mm
20:13 28.0 °C 10.7 °C 1008.0 hPa SW 11.9 km/h 11.9 km/h 34 % 0.0 mm
20:18 28.0 °C 10.7 °C 1008.0 hPa SW 11.9 km/h 11.9 km/h 34 % 0.0 mm
20:20 19.2 °C 14.9 °C 1010.0 hPa North 1.6 km/h 3.2 km/h 76 % 0.0 mm
20:23 28.0 °C 10.7 °C 1008.0 hPa SW 11.9 km/h 11.9 km/h 34 % 0.0 mm
20:28 28.0 °C 10.7 °C 1008.0 hPa SW 11.9 km/h 11.9 km/h 34 % 0.0 mm
20:30 19.1 °C 14.8 °C 1010.0 hPa NNE 1.6 km/h 3.2 km/h 76 % 0.0 mm
20:33 28.0 °C 10.7 °C 1008.0 hPa SW 11.9 km/h 11.9 km/h 34 % 0.0 mm
20:38 28.0 °C 10.7 °C 1008.0 hPa SW 11.9 km/h 11.9 km/h 34 % 0.0 mm
20:40 19.1 °C 14.8 °C 1010.0 hPa Calm   3.2 km/h 76 % 0.0 mm
20:43 28.0 °C 10.7 °C 1008.0 hPa SW 11.9 km/h 11.9 km/h 34 % 0.0 mm
20:48 28.0 °C 10.7 °C 1008.0 hPa SW 11.9 km/h 11.9 km/h 34 % 0.0 mm
20:50 19.0 °C 14.7 °C 1010.0 hPa Calm   1.6 km/h 76 % 0.0 mm
20:53 28.0 °C 10.7 °C 1008.0 hPa SW 11.9 km/h 11.9 km/h 34 % 0.0 mm
20:58 28.0 °C 10.7 °C 1008.0 hPa SW 11.9 km/h 11.9 km/h 34 % 0.0 mm
21:00 18.9 °C 15.0 °C 1010.7 hPa Calm   1.6 km/h 78 % 0.0 mm
21:03 28.0 °C 10.7 °C 1008.0 hPa SW 11.9 km/h 11.9 km/h 34 % 0.0 mm
21:08 28.0 °C 10.7 °C 1008.0 hPa SW 11.9 km/h 11.9 km/h 34 % 0.0 mm
21:10 18.9 °C 15.0 °C 1010.7 hPa Calm   1.6 km/h 78 % 0.0 mm
21:13 28.0 °C 10.7 °C 1008.0 hPa SW 11.9 km/h 11.9 km/h 34 % 0.0 mm
21:18 28.0 °C 10.7 °C 1008.0 hPa SW 11.9 km/h 11.9 km/h 34 % 0.0 mm
21:20 19.0 °C 14.7 °C 1010.7 hPa North 1.6 km/h 3.2 km/h 76 % 0.0 mm
21:23 28.0 °C 10.7 °C 1008.0 hPa SW 11.9 km/h 11.9 km/h 34 % 0.0 mm
21:28 28.0 °C 10.7 °C 1008.0 hPa SW 11.9 km/h 11.9 km/h 34 % 0.0 mm
21:30 18.9 °C 15.0 °C 1010.0 hPa Calm     78 % 0.0 mm
21:33 28.0 °C 10.7 °C 1008.0 hPa SW 11.9 km/h 11.9 km/h 34 % 0.0 mm
21:38 28.0 °C 10.7 °C 1008.0 hPa SW 11.9 km/h 11.9 km/h 34 % 0.0 mm
21:40 18.7 °C 14.8 °C 1010.7 hPa WNW 1.6 km/h 3.2 km/h 78 % 0.0 mm
21:43 28.0 °C 10.7 °C 1008.0 hPa SW 11.9 km/h 11.9 km/h 34 % 0.0 mm
21:48 28.0 °C 10.7 °C 1008.0 hPa SW 11.9 km/h 11.9 km/h 34 % 0.0 mm
21:50 18.5 °C 14.6 °C 1010.7 hPa West 1.6 km/h 3.2 km/h 78 % 0.0 mm
21:53 28.0 °C 10.7 °C 1008.0 hPa SW 11.9 km/h 11.9 km/h 34 % 0.0 mm
21:58 28.0 °C 10.7 °C 1008.0 hPa SW 11.9 km/h 11.9 km/h 34 % 0.0 mm
22:00 18.5 °C 14.6 °C 1010.7 hPa WSW 1.6 km/h 1.6 km/h 78 % 0.0 mm
22:03 28.0 °C 10.7 °C 1008.0 hPa SW 11.9 km/h 11.9 km/h 34 % 0.0 mm
22:08 28.0 °C 10.7 °C 1008.0 hPa SW 11.9 km/h 11.9 km/h 34 % 0.0 mm
22:10 18.5 °C 14.6 °C 1010.7 hPa WSW 1.6 km/h 1.6 km/h 78 % 0.0 mm
22:13 28.0 °C 10.7 °C 1008.0 hPa SW 11.9 km/h 11.9 km/h 34 % 0.0 mm
22:18 28.0 °C 10.7 °C 1008.0 hPa SW 11.9 km/h 11.9 km/h 34 % 0.0 mm
22:20 18.6 °C 14.9 °C 1010.7 hPa West 1.6 km/h 3.2 km/h 79 % 0.0 mm
22:23 28.0 °C 10.7 °C 1008.0 hPa SW 11.9 km/h 11.9 km/h 34 % 0.0 mm
22:28 28.0 °C 10.7 °C 1008.0 hPa SW 11.9 km/h 11.9 km/h 34 % 0.0 mm
22:30 18.6 °C 15.1 °C 1010.7 hPa Calm   1.6 km/h 80 % 0.0 mm
22:33 28.0 °C 10.7 °C 1008.0 hPa SW 11.9 km/h 11.9 km/h 34 % 0.0 mm
22:38 28.0 °C 10.7 °C 1008.0 hPa SW 11.9 km/h 11.9 km/h 34 % 0.0 mm
22:40 18.5 °C 14.8 °C 1010.7 hPa Calm   1.6 km/h 79 % 0.0 mm
22:43 28.0 °C 10.7 °C 1008.0 hPa SW 11.9 km/h 11.9 km/h 34 % 0.0 mm
22:48 28.0 °C 10.7 °C 1008.0 hPa SW 11.9 km/h 11.9 km/h 34 % 0.0 mm
22:50 18.6 °C 15.1 °C 1010.7 hPa Calm     80 % 0.0 mm
22:53 28.0 °C 10.7 °C 1008.0 hPa SW 11.9 km/h 11.9 km/h 34 % 0.0 mm
22:58 28.0 °C 10.7 °C 1008.0 hPa SW 11.9 km/h 11.9 km/h 34 % 0.0 mm
23:00 18.6 °C 15.1 °C 1010.7 hPa Calm   1.6 km/h 80 % 0.0 mm
23:03 28.0 °C 10.7 °C 1008.0 hPa SW 11.9 km/h 11.9 km/h 34 % 0.0 mm
23:08 28.0 °C 10.7 °C 1008.0 hPa SW 11.9 km/h 11.9 km/h 34 % 0.0 mm
23:10 18.5 °C 15.0 °C 1010.7 hPa Calm     80 % 0.0 mm
23:13 28.0 °C 10.7 °C 1008.0 hPa SW 11.9 km/h 11.9 km/h 34 % 0.0 mm
23:18 28.0 °C 10.7 °C 1008.0 hPa SW 11.9 km/h 11.9 km/h 34 % 0.0 mm
23:20 18.3 °C 14.8 °C 1010.7 hPa Calm   1.6 km/h 80 % 0.0 mm
23:23 28.0 °C 10.7 °C 1008.0 hPa SW 11.9 km/h 11.9 km/h 34 % 0.0 mm
23:28 28.0 °C 10.7 °C 1008.0 hPa SW 11.9 km/h 11.9 km/h 34 % 0.0 mm
23:30 18.2 °C 14.9 °C 1010.7 hPa SW 1.6 km/h 4.8 km/h 81 % 0.0 mm
23:33 28.0 °C 10.7 °C 1008.0 hPa SW 11.9 km/h 11.9 km/h 34 % 0.0 mm
23:38 28.0 °C 10.7 °C 1008.0 hPa SW 11.9 km/h 11.9 km/h 34 % 0.0 mm
23:40 17.9 °C 14.4 °C 1011.7 hPa SSW 1.6 km/h 3.2 km/h 80 % 0.0 mm
23:43 28.0 °C 10.7 °C 1008.0 hPa SW 11.9 km/h 11.9 km/h 34 % 0.0 mm
23:48 28.0 °C 10.7 °C 1008.0 hPa SW 11.9 km/h 11.9 km/h 34 % 0.0 mm
23:50 17.8 °C 14.5 °C 1011.7 hPa WSW 1.6 km/h 1.6 km/h 81 % 0.0 mm
23:53 28.0 °C 10.7 °C 1008.0 hPa SW 11.9 km/h 11.9 km/h 34 % 0.0 mm
23:58 28.0 °C 10.7 °C 1008.0 hPa SW 11.9 km/h 11.9 km/h 34 % 0.0 mm
Meteo Sesrovires
Elogis d' Weather Underground - 3.75 mb

Guio original per  Jim McMurry - jmcmurry@mwt.net Adaptat per a la plantilla per  Wim van der Kuil - Leuven-Template.eu

Trobareu la nostra informacio del temps tambe a:

Weather Underground

AWEKAS